This is the latest recevied weather packets stored in our database for station/object AL7BX-WX. If no packets are shown the sender has not sent any weather packets the latest 10 day(s).
| Time | Temp. | Humidity | Pressure | Rain* | Wind** | Luminosity | Snow |
|---|---|---|---|---|---|---|---|
| 1778208843 | 20° C | 24% | 0 hPa | 0 mm | - | - | - |
| 1778208303 | 20.56° C | 23% | 0 hPa | 0 mm | - | - | - |
| 1778206683 | 21.11° C | 23% | 0 hPa | 0 mm | - | - | - |
| 1778204163 | 21.11° C | 23% | 0 hPa | 0 mm | - | - | - |
| 1778202543 | 21.67° C | 22% | 0 hPa | 0 mm | - | - | - |
| 1778200023 | 24.44° C | 20% | 0 hPa | 0 mm | - | - | - |
| 1778198943 | 23.89° C | 21% | 0 hPa | 0 mm | - | - | - |
| 1778189223 | 25° C | 21% | 0 hPa | 0 mm | - | - | - |
| 1778187603 | 24.44° C | 20% | 0 hPa | 0 mm | - | - | - |
| 1778186703 | 24.44° C | 22% | 0 hPa | 0 mm | - | - | - |
| 1778180943 | 23.33° C | 23% | 0 hPa | 0 mm | - | - | - |
| 1778178963 | 22.22° C | 27% | 0 hPa | 0 mm | - | - | - |
| 1778175903 | 21.11° C | 30% | 0 hPa | 0 mm | - | - | - |
| 1778173204 | 18.89° C | 30% | 0 hPa | 0 mm | - | - | - |
| 1778170143 | 16.11° C | 34% | 0 hPa | 0 mm | - | - | - |
| 1778168163 | 13.89° C | 38% | 0 hPa | 0 mm | - | - | - |
| 1778166543 | 13.33° C | 41% | 0 hPa | 0 mm | - | - | - |
| 1778165643 | 11.67° C | 41% | 0 hPa | 0 mm | - | - | - |
| 1778161503 | 3.33° C | 66% | 0 hPa | 0 mm | - | - | - |
| 1778160963 | 2.78° C | 63% | 0 hPa | 0 mm | - | - | - |
| 1778160553 | 2.78° C | 63% | 0 hPa | 0 mm | - | - | - |
| 1778158443 | 1.67° C | 59% | 0 hPa | 0 mm | - | - | - |
| 1778154843 | 1.67° C | 57% | 0 hPa | 0 mm | - | - | - |
| 1778153223 | 2.22° C | 55% | 0 hPa | 0 mm | - | - | - |
| 1778152683 | 2.22° C | 55% | 0 hPa | 0 mm | - | - | - |
* Rain latest hour (hover to see other rain measurements)
** Current wind speed in m/s (hover to see current wind gust speed)